This is the latest recevied weather packets stored in our database for station/object OK1WJW-6. If no packets are shown the sender has not sent any weather packets the latest 1 day(s).
| Time | Temp. | Humidity | Pressure | Rain* | Wind** | Luminosity | Snow |
|---|---|---|---|---|---|---|---|
| 1836274391 | 11.67° C | 97% | 1024.2 hPa | 0 mm | 0 m/s | - | - |
| 1778010020 | 11.67° C | 99% | 1007.5 hPa | 0.25 mm | 0 m/s | - | - |
| 1778007667 | 11.67° C | 99% | 1006.5 hPa | 11.18 mm | 1.79 m/s, 306° | - | - |
| 1778005253 | 11.67° C | 99% | 1008.1 hPa | 10.41 mm | 3.58 m/s, 267° | - | - |
| 1778002839 | 16.11° C | 90% | 1006.6 hPa | 0.51 mm | 0.45 m/s, 135° | - | - |
| 1778000425 | 16.67° C | 85% | 1005.9 hPa | 0 mm | 0.89 m/s, 10° | - | - |
| 1777998071 | 18.33° C | 76% | 1006.2 hPa | 0 mm | 1.34 m/s, 20° | - | - |
| 1777995657 | 19.44° C | 76% | 1006.3 hPa | 0 mm | 1.79 m/s, 314° | - | - |
| 1777993243 | 21.11° C | 64% | 1006.5 hPa | 0 mm | 0.89 m/s, 19° | - | - |
| 1777990830 | 21.67° C | 61% | 1006.7 hPa | 0 mm | 1.34 m/s, 339° | - | - |
| 1777988416 | 21.67° C | 61% | 1007.3 hPa | 0 mm | 0.45 m/s, 52° | - | - |
| 1777986062 | 22.22° C | 57% | 1007.4 hPa | 0 mm | 2.24 m/s, 126° | - | - |
| 1777983648 | 21.67° C | 58% | 1007.9 hPa | 0 mm | 0.45 m/s, 123° | - | - |
| 1777981232 | 21.67° C | 59% | 1008.1 hPa | 0 mm | 0.89 m/s, 194° | - | - |
| 1777978818 | 21.67° C | 61% | 1008.4 hPa | 0 mm | 1.79 m/s, 139° | - | - |
| 1777976465 | 21.11° C | 64% | 1008.9 hPa | 0 mm | 1.79 m/s, 117° | - | - |
| 1777974050 | 20° C | 66% | 1009.2 hPa | 0 mm | 2.24 m/s, 135° | - | - |
| 1777971637 | 19.44° C | 67% | 1009.5 hPa | 0 mm | 1.79 m/s, 141° | - | - |
| 1777969222 | 19.44° C | 72% | 1009.9 hPa | 0 mm | 1.79 m/s, 117° | - | - |
| 1777966869 | 18.89° C | 73% | 1010.1 hPa | 0 mm | 1.34 m/s, 119° | - | - |
| 1777964455 | 16.67° C | 76% | 1010.3 hPa | 0 mm | 1.34 m/s, 58° | - | - |
| 1777962041 | 17.22° C | 75% | 1010.5 hPa | 0 mm | 0.45 m/s, 48° | - | - |
| 1777959627 | 13.89° C | 89% | 1010.5 hPa | 0 mm | 0.45 m/s, 268° | - | - |
| 1777957274 | 13.33° C | 89% | 1010.5 hPa | 0 mm | 0 m/s | - | - |
| 1777954860 | 13.33° C | 89% | 1010.6 hPa | 0 mm | 0.45 m/s, 341° | - | - |
* Rain latest hour (hover to see other rain measurements)
** Current wind speed in m/s (hover to see current wind gust speed)